sensor_id;sensor_type;location;lat;lon;timestamp;pressure;altitude;pressure_sealevel;temperature;humidity
46045;BME280;31781;54.094;13.428;2023-02-12T00:01:28;103348.13;;;5.42;80.33
46045;BME280;31781;54.094;13.428;2023-02-12T00:03:30;103356.34;;;5.40;79.96
46045;BME280;31781;54.094;13.428;2023-02-12T00:05:32;103344.66;;;5.40;80.36
46045;BME280;31781;54.094;13.428;2023-02-12T00:07:34;103351.91;;;5.39;79.73
46045;BME280;31781;54.094;13.428;2023-02-12T00:09:36;103351.16;;;5.37;80.47
46045;BME280;31781;54.094;13.428;2023-02-12T00:11:38;103348.47;;;5.37;80.10
46045;BME280;31781;54.094;13.428;2023-02-12T00:13:40;103362.06;;;5.36;80.52
46045;BME280;31781;54.094;13.428;2023-02-12T00:15:42;103356.78;;;5.34;79.95
46045;BME280;31781;54.094;13.428;2023-02-12T00:17:45;103359.50;;;5.34;80.51
46045;BME280;31781;54.094;13.428;2023-02-12T00:19:47;103374.81;;;5.34;80.23
46045;BME280;31781;54.094;13.428;2023-02-12T00:21:48;103375.91;;;5.31;80.17
46045;BME280;31781;54.094;13.428;2023-02-12T00:23:50;103382.28;;;5.30;80.06
46045;BME280;31781;54.094;13.428;2023-02-12T00:25:51;103385.84;;;5.31;80.20
46045;BME280;31781;54.094;13.428;2023-02-12T00:27:54;103383.38;;;5.28;80.28
46045;BME280;31781;54.094;13.428;2023-02-12T00:29:56;103402.91;;;5.31;79.85
46045;BME280;31781;54.094;13.428;2023-02-12T00:31:57;103395.78;;;5.30;80.63
46045;BME280;31781;54.094;13.428;2023-02-12T00:34:00;103389.50;;;5.30;79.90
46045;BME280;31781;54.094;13.428;2023-02-12T00:36:03;103397.59;;;5.30;80.63
46045;BME280;31781;54.094;13.428;2023-02-12T00:38:05;103404.09;;;5.27;80.58
46045;BME280;31781;54.094;13.428;2023-02-12T00:40:08;103402.13;;;5.29;80.38
46045;BME280;31781;54.094;13.428;2023-02-12T00:42:09;103403.97;;;5.29;80.64
46045;BME280;31781;54.094;13.428;2023-02-12T00:44:11;103406.78;;;5.27;80.91
46045;BME280;31781;54.094;13.428;2023-02-12T00:46:13;103408.63;;;5.27;81.03
46045;BME280;31781;54.094;13.428;2023-02-12T00:48:15;103409.50;;;5.27;80.51
46045;BME280;31781;54.094;13.428;2023-02-12T00:50:18;103412.28;;;5.26;80.62
46045;BME280;31781;54.094;13.428;2023-02-12T00:52:20;103415.84;;;5.26;81.45
46045;BME280;31781;54.094;13.428;2023-02-12T00:54:21;103417.69;;;5.26;81.25
46045;BME280;31781;54.094;13.428;2023-02-12T00:56:23;103415.00;;;5.26;81.46
46045;BME280;31781;54.094;13.428;2023-02-12T00:58:25;103416.81;;;5.25;81.76
46045;BME280;31781;54.094;13.428;2023-02-12T01:00:27;103411.31;;;5.27;81.75
46045;BME280;31781;54.094;13.428;2023-02-12T01:02:28;103411.19;;;5.28;81.26
46045;BME280;31781;54.094;13.428;2023-02-12T01:04:30;103403.97;;;5.29;81.53
46045;BME280;31781;54.094;13.428;2023-02-12T01:06:33;103412.06;;;5.29;81.83
46045;BME280;31781;54.094;13.428;2023-02-12T01:08:35;103411.97;;;5.30;81.73
46045;BME280;31781;54.094;13.428;2023-02-12T01:10:37;103423.63;;;5.31;82.26
46045;BME280;31781;54.094;13.428;2023-02-12T01:12:38;103424.38;;;5.33;82.24
46045;BME280;31781;54.094;13.428;2023-02-12T01:14:40;103422.66;;;5.32;82.44
46045;BME280;31781;54.094;13.428;2023-02-12T01:16:42;103437.88;;;5.33;82.53
46045;BME280;31781;54.094;13.428;2023-02-12T01:18:44;103430.66;;;5.33;82.98
46045;BME280;31781;54.094;13.428;2023-02-12T01:20:46;103432.25;;;5.36;82.35
46045;BME280;31781;54.094;13.428;2023-02-12T01:22:49;103430.31;;;5.38;83.15
46045;BME280;31781;54.094;13.428;2023-02-12T01:24:51;103427.50;;;5.39;82.59
46045;BME280;31781;54.094;13.428;2023-02-12T01:26:53;103427.50;;;5.39;82.27
46045;BME280;31781;54.094;13.428;2023-02-12T01:28:56;103436.38;;;5.42;83.23
46045;BME280;31781;54.094;13.428;2023-02-12T01:30:57;103442.72;;;5.40;83.26
46045;BME280;31781;54.094;13.428;2023-02-12T01:32:59;103437.22;;;5.42;83.02
46045;BME280;31781;54.094;13.428;2023-02-12T01:35:02;103435.28;;;5.44;83.37
46045;BME280;31781;54.094;13.428;2023-02-12T01:37:04;103427.16;;;5.44;83.59
46045;BME280;31781;54.094;13.428;2023-02-12T01:39:07;103433.34;;;5.46;83.46
46045;BME280;31781;54.094;13.428;2023-02-12T01:41:11;103439.47;;;5.48;83.70
46045;BME280;31781;54.094;13.428;2023-02-12T01:43:13;103438.50;;;5.49;83.34
46045;BME280;31781;54.094;13.428;2023-02-12T01:45:44;103441.94;;;5.51;82.63
46045;BME280;31781;54.094;13.428;2023-02-12T01:47:47;103445.53;;;5.52;83.38
46045;BME280;31781;54.094;13.428;2023-02-12T01:49:49;103438.50;;;5.49;83.88
46045;BME280;31781;54.094;13.428;2023-02-12T01:51:52;103438.28;;;5.52;84.17
46045;BME280;31781;54.094;13.428;2023-02-12T01:53:58;103431.06;;;5.53;83.95
46045;BME280;31781;54.094;13.428;2023-02-12T01:56:04;103436.34;;;5.54;84.52
46045;BME280;31781;54.094;13.428;2023-02-12T01:58:07;103439.88;;;5.55;84.24
46045;BME280;31781;54.094;13.428;2023-02-12T02:00:13;103430.72;;;5.57;84.50
46045;BME280;31781;54.094;13.428;2023-02-12T02:02:16;103437.84;;;5.58;83.86
46045;BME280;31781;54.094;13.428;2023-02-12T02:04:20;103444.97;;;5.59;84.29
46045;BME280;31781;54.094;13.428;2023-02-12T02:06:27;103438.59;;;5.60;84.80
46045;BME280;31781;54.094;13.428;2023-02-12T02:08:32;103443.03;;;5.61;84.53
46045;BME280;31781;54.094;13.428;2023-02-12T02:10:34;103439.34;;;5.62;84.24
46045;BME280;31781;54.094;13.428;2023-02-12T02:12:38;103446.38;;;5.65;84.29
46045;BME280;31781;54.094;13.428;2023-02-12T02:14:41;103440.97;;;5.65;84.84
46045;BME280;31781;54.094;13.428;2023-02-12T02:16:50;103441.72;;;5.67;84.81
46045;BME280;31781;54.094;13.428;2023-02-12T02:18:57;103442.47;;;5.69;84.70
46045;BME280;31781;54.094;13.428;2023-02-12T02:21:19;103446.78;;;5.71;83.94
46045;BME280;31781;54.094;13.428;2023-02-12T02:23:40;103434.03;;;5.73;83.96
46045;BME280;31781;54.094;13.428;2023-02-12T02:26:01;103439.41;;;5.73;84.28
46045;BME280;31781;54.094;13.428;2023-02-12T02:30:42;103443.84;;;5.74;83.86
46045;BME280;31781;54.094;13.428;2023-02-12T02:32:55;103449.16;;;5.76;83.83
46045;BME280;31781;54.094;13.428;2023-02-12T02:35:04;103451.00;;;5.75;84.35
46045;BME280;31781;54.094;13.428;2023-02-12T02:37:14;103446.47;;;5.76;83.69
46045;BME280;31781;54.094;13.428;2023-02-12T02:39:23;103449.03;;;5.77;83.62
46045;BME280;31781;54.094;13.428;2023-02-12T02:41:32;103448.16;;;5.77;84.48
46045;BME280;31781;54.094;13.428;2023-02-12T02:43:39;103445.38;;;5.78;83.57
46045;BME280;31781;54.094;13.428;2023-02-12T02:45:48;103439.00;;;5.79;83.91
46045;BME280;31781;54.094;13.428;2023-02-12T02:47:54;103447.09;;;5.79;83.54
46045;BME280;31781;54.094;13.428;2023-02-12T02:50:03;103445.13;;;5.81;83.98
46045;BME280;31781;54.094;13.428;2023-02-12T02:52:08;103450.44;;;5.83;84.02
46045;BME280;31781;54.094;13.428;2023-02-12T02:54:15;103453.00;;;5.84;83.81
46045;BME280;31781;54.094;13.428;2023-02-12T02:56:20;103446.75;;;5.84;83.55
46045;BME280;31781;54.094;13.428;2023-02-12T02:58:26;103449.34;;;5.85;83.17
46045;BME280;31781;54.094;13.428;2023-02-12T03:00:36;103450.97;;;5.88;83.33
46045;BME280;31781;54.094;13.428;2023-02-12T03:02:44;103448.28;;;5.88;83.68
46045;BME280;31781;54.094;13.428;2023-02-12T03:04:51;103456.38;;;5.88;83.12
46045;BME280;31781;54.094;13.428;2023-02-12T03:06:58;103458.13;;;5.89;83.31
46045;BME280;31781;54.094;13.428;2023-02-12T03:09:12;103457.25;;;5.88;82.98
46045;BME280;31781;54.094;13.428;2023-02-12T03:11:18;103465.34;;;5.88;82.71
46045;BME280;31781;54.094;13.428;2023-02-12T03:13:25;103461.91;;;5.86;82.78
46045;BME280;31781;54.094;13.428;2023-02-12T03:15:31;103462.78;;;5.87;82.26
46045;BME280;31781;54.094;13.428;2023-02-12T03:17:40;103466.44;;;5.86;83.14
46045;BME280;31781;54.094;13.428;2023-02-12T03:19:46;103462.84;;;5.85;82.94
46045;BME280;31781;54.094;13.428;2023-02-12T03:21:52;103459.28;;;5.85;82.50
46045;BME280;31781;54.094;13.428;2023-02-12T03:23:59;103470.94;;;5.85;82.87
46045;BME280;31781;54.094;13.428;2023-02-12T03:26:05;103459.28;;;5.85;83.11
46045;BME280;31781;54.094;13.428;2023-02-12T03:28:14;103461.13;;;5.84;83.04
46045;BME280;31781;54.094;13.428;2023-02-12T03:30:17;103460.25;;;5.84;83.32
46045;BME280;31781;54.094;13.428;2023-02-12T03:32:28;103461.97;;;5.85;83.08
46045;BME280;31781;54.094;13.428;2023-02-12T03:34:44;103452.13;;;5.84;82.84
46045;BME280;31781;54.094;13.428;2023-02-12T03:36:50;103460.25;;;5.84;82.88
46045;BME280;31781;54.094;13.428;2023-02-12T03:38:57;103462.22;;;5.82;83.38
46045;BME280;31781;54.094;13.428;2023-02-12T03:41:08;103464.81;;;5.83;83.06
46045;BME280;31781;54.094;13.428;2023-02-12T03:43:19;103471.06;;;5.84;82.84
46045;BME280;31781;54.094;13.428;2023-02-12T03:45:35;103468.34;;;5.84;83.44
46045;BME280;31781;54.094;13.428;2023-02-12T03:47:43;103468.34;;;5.84;83.26
46045;BME280;31781;54.094;13.428;2023-02-12T03:49:54;103478.13;;;5.86;83.31
46045;BME280;31781;54.094;13.428;2023-02-12T03:51:58;103474.56;;;5.86;83.65
46045;BME280;31781;54.094;13.428;2023-02-12T03:54:01;103487.09;;;5.87;83.44
46045;BME280;31781;54.094;13.428;2023-02-12T03:56:06;103488.81;;;5.88;83.43
46045;BME280;31781;54.094;13.428;2023-02-12T03:58:14;103486.00;;;5.90;84.07
46045;BME280;31781;54.094;13.428;2023-02-12T04:00:21;103486.00;;;5.90;83.87
46045;BME280;31781;54.094;13.428;2023-02-12T04:02:23;103487.75;;;5.91;83.60
46045;BME280;31781;54.094;13.428;2023-02-12T04:04:27;103490.31;;;5.92;84.23
46045;BME280;31781;54.094;13.428;2023-02-12T04:06:31;103491.19;;;5.93;84.22
46045;BME280;31781;54.094;13.428;2023-02-12T04:08:33;103483.84;;;5.95;83.52
46045;BME280;31781;54.094;13.428;2023-02-12T04:10:41;103488.38;;;5.94;83.78
46045;BME280;31781;54.094;13.428;2023-02-12T04:12:51;103489.97;;;5.97;83.78
46045;BME280;31781;54.094;13.428;2023-02-12T04:15:06;103495.28;;;5.98;83.39
46045;BME280;31781;54.094;13.428;2023-02-12T04:17:19;103493.41;;;5.99;84.19
46045;BME280;31781;54.094;13.428;2023-02-12T04:19:29;103501.53;;;5.99;83.81
46045;BME280;31781;54.094;13.428;2023-02-12T04:21:43;103505.00;;;6.01;83.70
46045;BME280;31781;54.094;13.428;2023-02-12T04:23:57;103505.00;;;6.01;84.17
46045;BME280;31781;54.094;13.428;2023-02-12T04:26:08;103506.75;;;6.02;83.87
46045;BME280;31781;54.094;13.428;2023-02-12T04:28:16;103504.13;;;6.00;84.02
46045;BME280;31781;54.094;13.428;2023-02-12T04:30:26;103513.09;;;6.01;84.40
46045;BME280;31781;54.094;13.428;2023-02-12T04:32:32;103507.59;;;6.02;84.28
46045;BME280;31781;54.094;13.428;2023-02-12T04:34:43;103509.44;;;6.02;84.62
46045;BME280;31781;54.094;13.428;2023-02-12T04:36:53;103516.44;;;6.04;84.63
46045;BME280;31781;54.094;13.428;2023-02-12T04:38:59;103512.88;;;6.04;84.68
46045;BME280;31781;54.094;13.428;2023-02-12T04:41:04;103516.44;;;6.04;84.48
46045;BME280;31781;54.094;13.428;2023-02-12T04:43:07;103517.19;;;6.06;84.88
46045;BME280;31781;54.094;13.428;2023-02-12T04:45:09;103526.16;;;6.07;84.60
46045;BME280;31781;54.094;13.428;2023-02-12T04:47:12;103522.50;;;6.08;84.82
46045;BME280;31781;54.094;13.428;2023-02-12T04:49:16;103519.69;;;6.09;85.16
46045;BME280;31781;54.094;13.428;2023-02-12T04:51:18;103516.00;;;6.10;85.08
46045;BME280;31781;54.094;13.428;2023-02-12T04:53:22;103520.44;;;6.11;84.90
46045;BME280;31781;54.094;13.428;2023-02-12T04:55:23;103522.16;;;6.12;85.20
46045;BME280;31781;54.094;13.428;2023-02-12T04:57:25;103517.63;;;6.13;84.74
46045;BME280;31781;54.094;13.428;2023-02-12T04:59:27;103520.19;;;6.14;85.22
46045;BME280;31781;54.094;13.428;2023-02-12T05:01:29;103520.97;;;6.16;84.52
46045;BME280;31781;54.094;13.428;2023-02-12T05:03:32;103525.38;;;6.17;84.86
46045;BME280;31781;54.094;13.428;2023-02-12T05:05:34;103526.13;;;6.19;85.14
46045;BME280;31781;54.094;13.428;2023-02-12T05:07:36;103529.56;;;6.21;84.76
46045;BME280;31781;54.094;13.428;2023-02-12T05:09:39;103527.75;;;6.22;85.37
46045;BME280;31781;54.094;13.428;2023-02-12T05:11:41;103538.47;;;6.23;85.10
46045;BME280;31781;54.094;13.428;2023-02-12T05:13:42;103542.75;;;6.26;85.07
46045;BME280;31781;54.094;13.428;2023-02-12T05:15:44;103547.19;;;6.27;84.63
46045;BME280;31781;54.094;13.428;2023-02-12T05:17:45;103550.78;;;6.27;84.72
46045;BME280;31781;54.094;13.428;2023-02-12T05:19:47;103545.25;;;6.29;85.33
46045;BME280;31781;54.094;13.428;2023-02-12T05:21:49;103540.59;;;6.31;85.11
46045;BME280;31781;54.094;13.428;2023-02-12T05:23:51;103540.47;;;6.32;85.51
46045;BME280;31781;54.094;13.428;2023-02-12T05:25:57;103525.09;;;6.33;85.32
46045;BME280;31781;54.094;13.428;2023-02-12T05:27:59;103530.41;;;6.34;85.39
46045;BME280;31781;54.094;13.428;2023-02-12T05:30:01;103527.72;;;6.34;85.17
46045;BME280;31781;54.094;13.428;2023-02-12T05:32:03;103520.34;;;6.36;85.00
46045;BME280;31781;54.094;13.428;2023-02-12T05:34:07;103528.34;;;6.38;85.59
46045;BME280;31781;54.094;13.428;2023-02-12T05:36:12;103528.34;;;6.38;85.13
46045;BME280;31781;54.094;13.428;2023-02-12T05:38:14;103527.25;;;6.41;85.35
46045;BME280;31781;54.094;13.428;2023-02-12T05:40:16;103532.78;;;6.39;84.85
46045;BME280;31781;54.094;13.428;2023-02-12T05:42:19;103527.25;;;6.41;84.78
46045;BME280;31781;54.094;13.428;2023-02-12T05:44:21;103528.84;;;6.43;85.21
46045;BME280;31781;54.094;13.428;2023-02-12T05:46:23;103533.28;;;6.44;85.41
46045;BME280;31781;54.094;13.428;2023-02-12T05:48:25;103533.19;;;6.46;84.64
46045;BME280;31781;54.094;13.428;2023-02-12T05:50:27;103536.75;;;6.46;85.12
46045;BME280;31781;54.094;13.428;2023-02-12T05:52:28;103541.16;;;6.47;85.06
46045;BME280;31781;54.094;13.428;2023-02-12T05:54:30;103530.34;;;6.47;85.30
46045;BME280;31781;54.094;13.428;2023-02-12T05:56:34;103536.53;;;6.49;85.27
46045;BME280;31781;54.094;13.428;2023-02-12T05:58:38;103535.66;;;6.49;85.29
46045;BME280;31781;54.094;13.428;2023-02-12T06:00:40;103541.81;;;6.51;85.55
46045;BME280;31781;54.094;13.428;2023-02-12T06:02:42;103549.91;;;6.51;85.31
46045;BME280;31781;54.094;13.428;2023-02-12T06:04:44;103549.72;;;6.54;85.21
46045;BME280;31781;54.094;13.428;2023-02-12T06:06:49;103555.13;;;6.54;85.16
46045;BME280;31781;54.094;13.428;2023-02-12T06:08:50;103555.84;;;6.56;84.67
46045;BME280;31781;54.094;13.428;2023-02-12T06:10:52;103562.00;;;6.58;85.44
46045;BME280;31781;54.094;13.428;2023-02-12T06:12:54;103566.44;;;6.59;85.02
46045;BME280;31781;54.094;13.428;2023-02-12T06:14:57;103561.78;;;6.61;85.59
46045;BME280;31781;54.094;13.428;2023-02-12T06:16:58;103568.06;;;6.61;85.23
46045;BME280;31781;54.094;13.428;2023-02-12T06:19:02;103572.47;;;6.62;85.01
46045;BME280;31781;54.094;13.428;2023-02-12T06:21:04;103568.06;;;6.61;85.07
46045;BME280;31781;54.094;13.428;2023-02-12T06:23:06;103564.28;;;6.64;84.67
46045;BME280;31781;54.094;13.428;2023-02-12T06:25:08;103558.00;;;6.63;84.99
46045;BME280;31781;54.094;13.428;2023-02-12T06:27:10;103557.88;;;6.65;85.30
46045;BME280;31781;54.094;13.428;2023-02-12T06:29:12;103567.72;;;6.66;84.79
46045;BME280;31781;54.094;13.428;2023-02-12T06:31:18;103563.16;;;6.66;85.52
46045;BME280;31781;54.094;13.428;2023-02-12T06:33:20;103559.59;;;6.66;85.12
46045;BME280;31781;54.094;13.428;2023-02-12T06:35:22;103556.88;;;6.66;85.48
46045;BME280;31781;54.094;13.428;2023-02-12T06:37:23;103561.31;;;6.67;84.74
46045;BME280;31781;54.094;13.428;2023-02-12T06:39:25;103552.34;;;6.66;85.45
46045;BME280;31781;54.094;13.428;2023-02-12T06:41:27;103549.53;;;6.68;84.81
46045;BME280;31781;54.094;13.428;2023-02-12T06:43:28;103552.25;;;6.68;85.13
46045;BME280;31781;54.094;13.428;2023-02-12T06:45:31;103558.53;;;6.68;84.99
46045;BME280;31781;54.094;13.428;2023-02-12T06:47:34;103561.31;;;6.67;85.49
46045;BME280;31781;54.094;13.428;2023-02-12T06:49:36;103569.22;;;6.70;84.41
46045;BME280;31781;54.094;13.428;2023-02-12T06:51:38;103574.75;;;6.68;84.83
46045;BME280;31781;54.094;13.428;2023-02-12T06:53:39;103572.78;;;6.70;84.59
46045;BME280;31781;54.094;13.428;2023-02-12T06:55:41;103580.16;;;6.68;84.72
46045;BME280;31781;54.094;13.428;2023-02-12T06:57:43;103586.41;;;6.69;84.60
46045;BME280;31781;54.094;13.428;2023-02-12T06:59:44;103587.19;;;6.71;85.02
46045;BME280;31781;54.094;13.428;2023-02-12T07:01:46;103585.44;;;6.70;84.90
46045;BME280;31781;54.094;13.428;2023-02-12T07:03:51;103589.00;;;6.70;85.27
46045;BME280;31781;54.094;13.428;2023-02-12T07:05:53;103588.28;;;6.68;84.61
46045;BME280;31781;54.094;13.428;2023-02-12T07:07:55;103603.50;;;6.69;84.39
46045;BME280;31781;54.094;13.428;2023-02-12T07:09:57;103603.66;;;6.68;84.62
46045;BME280;31781;54.094;13.428;2023-02-12T07:11:59;103604.50;;;6.68;85.09
46045;BME280;31781;54.094;13.428;2023-02-12T07:14:00;103607.22;;;6.68;84.27
46045;BME280;31781;54.094;13.428;2023-02-12T07:16:03;103611.75;;;6.68;85.01
46045;BME280;31781;54.094;13.428;2023-02-12T07:18:05;103608.19;;;6.67;84.81
46045;BME280;31781;54.094;13.428;2023-02-12T07:20:09;103617.19;;;6.68;84.85
46045;BME280;31781;54.094;13.428;2023-02-12T07:22:11;103612.63;;;6.68;84.90
46045;BME280;31781;54.094;13.428;2023-02-12T07:24:14;103617.19;;;6.68;84.40
46045;BME280;31781;54.094;13.428;2023-02-12T07:26:17;103618.03;;;6.68;84.50
46045;BME280;31781;54.094;13.428;2023-02-12T07:28:18;103622.59;;;6.68;84.46
46045;BME280;31781;54.094;13.428;2023-02-12T07:30:20;103623.31;;;6.70;84.42
46045;BME280;31781;54.094;13.428;2023-02-12T07:32:22;103620.63;;;6.70;84.26
46045;BME280;31781;54.094;13.428;2023-02-12T07:34:24;103615.09;;;6.71;84.02
46045;BME280;31781;54.094;13.428;2023-02-12T07:36:29;103623.94;;;6.73;84.83
46045;BME280;31781;54.094;13.428;2023-02-12T07:38:31;103624.81;;;6.74;84.32
46045;BME280;31781;54.094;13.428;2023-02-12T07:40:32;103633.72;;;6.76;84.61
46045;BME280;31781;54.094;13.428;2023-02-12T07:42:34;103630.88;;;6.77;84.56
46045;BME280;31781;54.094;13.428;2023-02-12T07:44:35;103635.41;;;6.77;84.18
46045;BME280;31781;54.094;13.428;2023-02-12T07:46:39;103638.88;;;6.79;84.62
46045;BME280;31781;54.094;13.428;2023-02-12T07:48:41;103630.78;;;6.79;84.06
46045;BME280;31781;54.094;13.428;2023-02-12T07:50:43;103637.78;;;6.81;84.30
46045;BME280;31781;54.094;13.428;2023-02-12T07:52:49;103637.69;;;6.83;84.78
46045;BME280;31781;54.094;13.428;2023-02-12T07:54:51;103636.69;;;6.84;83.96
46045;BME280;31781;54.094;13.428;2023-02-12T07:56:53;103636.59;;;6.85;84.13
46045;BME280;31781;54.094;13.428;2023-02-12T07:58:55;103637.44;;;6.86;84.41
46045;BME280;31781;54.094;13.428;2023-02-12T08:00:58;103637.31;;;6.88;84.55
46045;BME280;31781;54.094;13.428;2023-02-12T08:03:00;103634.50;;;6.89;84.78
46045;BME280;31781;54.094;13.428;2023-02-12T08:05:02;103646.19;;;6.90;84.10
46045;BME280;31781;54.094;13.428;2023-02-12T08:07:04;103643.50;;;6.90;84.65
46045;BME280;31781;54.094;13.428;2023-02-12T08:09:09;103645.22;;;6.91;84.48
46045;BME280;31781;54.094;13.428;2023-02-12T08:11:13;103646.94;;;6.92;84.18
46045;BME280;31781;54.094;13.428;2023-02-12T08:13:14;103644.13;;;6.93;84.19
46045;BME280;31781;54.094;13.428;2023-02-12T08:15:17;103644.03;;;6.95;84.13
46045;BME280;31781;54.094;13.428;2023-02-12T08:17:19;103648.44;;;6.96;84.77
46045;BME280;31781;54.094;13.428;2023-02-12T08:19:21;103642.94;;;6.97;84.68
46045;BME280;31781;54.094;13.428;2023-02-12T08:21:27;103649.22;;;6.98;84.83
46045;BME280;31781;54.094;13.428;2023-02-12T08:23:29;103655.34;;;7.00;84.19
46045;BME280;31781;54.094;13.428;2023-02-12T08:25:32;103647.22;;;7.00;84.54
46045;BME280;31781;54.094;13.428;2023-02-12T08:27:34;103660.53;;;7.03;85.10
46045;BME280;31781;54.094;13.428;2023-02-12T08:29:35;103656.84;;;7.04;85.03
46045;BME280;31781;54.094;13.428;2023-02-12T08:31:39;103655.88;;;7.05;85.24
46045;BME280;31781;54.094;13.428;2023-02-12T08:33:43;103649.50;;;7.06;84.96
46045;BME280;31781;54.094;13.428;2023-02-12T08:35:44;103647.53;;;7.08;84.72
46045;BME280;31781;54.094;13.428;2023-02-12T08:37:46;103658.25;;;7.09;84.83
46045;BME280;31781;54.094;13.428;2023-02-12T08:39:47;103653.69;;;7.10;85.32
46045;BME280;31781;54.094;13.428;2023-02-12T08:41:52;103658.88;;;7.13;84.99
46045;BME280;31781;54.094;13.428;2023-02-12T08:43:56;103651.59;;;7.13;85.45
46045;BME280;31781;54.094;13.428;2023-02-12T08:46:02;103657.66;;;7.17;85.11
46045;BME280;31781;54.094;13.428;2023-02-12T08:48:04;103649.53;;;7.17;85.59
46045;BME280;31781;54.094;13.428;2023-02-12T08:50:07;103656.44;;;7.21;85.20
46045;BME280;31781;54.094;13.428;2023-02-12T08:52:09;103658.94;;;7.24;85.08
46045;BME280;31781;54.094;13.428;2023-02-12T08:54:12;103655.22;;;7.25;84.85
46045;BME280;31781;54.094;13.428;2023-02-12T08:56:16;103656.72;;;7.29;85.07
46045;BME280;31781;54.094;13.428;2023-02-12T08:58:19;103655.66;;;7.31;85.47
46045;BME280;31781;54.094;13.428;2023-02-12T09:00:21;103657.34;;;7.32;85.31
46045;BME280;31781;54.094;13.428;2023-02-12T09:02:23;103662.66;;;7.34;85.27
46045;BME280;31781;54.094;13.428;2023-02-12T09:04:26;103654.19;;;7.39;85.19
46045;BME280;31781;54.094;13.428;2023-02-12T09:06:31;103657.63;;;7.41;85.21
46045;BME280;31781;54.094;13.428;2023-02-12T09:08:34;103658.41;;;7.43;85.22
46045;BME280;31781;54.094;13.428;2023-02-12T09:10:38;103655.56;;;7.44;85.17
46045;BME280;31781;54.094;13.428;2023-02-12T09:12:39;103658.03;;;7.47;84.85
46045;BME280;31781;54.094;13.428;2023-02-12T09:14:42;103661.50;;;7.49;85.41
46045;BME280;31781;54.094;13.428;2023-02-12T09:16:44;103662.22;;;7.51;84.97
46045;BME280;31781;54.094;13.428;2023-02-12T09:18:46;103665.56;;;7.55;85.18
46045;BME280;31781;54.094;13.428;2023-02-12T09:20:48;103664.59;;;7.56;85.56
46045;BME280;31781;54.094;13.428;2023-02-12T09:22:49;103662.75;;;7.56;84.74
46045;BME280;31781;54.094;13.428;2023-02-12T09:24:51;103666.31;;;7.57;84.56
46045;BME280;31781;54.094;13.428;2023-02-12T09:26:53;103668.91;;;7.58;84.39
46045;BME280;31781;54.094;13.428;2023-02-12T09:28:55;103678.75;;;7.59;84.96
46045;BME280;31781;54.094;13.428;2023-02-12T09:30:58;103683.06;;;7.62;84.92
46045;BME280;31781;54.094;13.428;2023-02-12T09:32:59;103687.41;;;7.64;84.22
46045;BME280;31781;54.094;13.428;2023-02-12T09:35:01;103689.13;;;7.65;84.32
46045;BME280;31781;54.094;13.428;2023-02-12T09:37:03;103701.59;;;7.68;83.90
46045;BME280;31781;54.094;13.428;2023-02-12T09:39:04;103689.75;;;7.69;84.11
46045;BME280;31781;54.094;13.428;2023-02-12T09:41:37;103693.06;;;7.72;84.42
46045;BME280;31781;54.094;13.428;2023-02-12T09:43:52;103697.53;;;7.73;84.17
46045;BME280;31781;54.094;13.428;2023-02-12T09:46:03;103699.25;;;7.74;82.89
46045;BME280;31781;54.094;13.428;2023-02-12T09:48:23;103707.28;;;7.76;83.21
46045;BME280;31781;54.094;13.428;2023-02-12T09:50:35;103703.47;;;7.78;83.32
46045;BME280;31781;54.094;13.428;2023-02-12T09:52:39;103706.16;;;7.78;82.69
46045;BME280;31781;54.094;13.428;2023-02-12T09:54:43;103707.78;;;7.81;82.71
46045;BME280;31781;54.094;13.428;2023-02-12T09:56:48;103703.94;;;7.83;82.20
46045;BME280;31781;54.094;13.428;2023-02-12T09:58:52;103701.13;;;7.85;82.15
46045;BME280;31781;54.094;13.428;2023-02-12T10:00:59;103698.78;;;7.92;82.24
46045;BME280;31781;54.094;13.428;2023-02-12T10:03:03;103704.13;;;7.93;82.24
46045;BME280;31781;54.094;13.428;2023-02-12T10:05:16;103706.69;;;7.95;82.86
46045;BME280;31781;54.094;13.428;2023-02-12T10:07:28;103697.34;;;7.99;81.66
46045;BME280;31781;54.094;13.428;2023-02-12T10:09:43;103698.09;;;8.01;81.99
46045;BME280;31781;54.094;13.428;2023-02-12T10:11:56;103694.16;;;8.05;82.20
46045;BME280;31781;54.094;13.428;2023-02-12T10:14:10;103703.88;;;8.07;82.38
46045;BME280;31781;54.094;13.428;2023-02-12T10:16:25;103699.09;;;8.11;81.91
46045;BME280;31781;54.094;13.428;2023-02-12T10:18:51;103683.44;;;8.14;82.35
46045;BME280;31781;54.094;13.428;2023-02-12T10:21:09;103688.59;;;8.17;82.26
46045;BME280;31781;54.094;13.428;2023-02-12T10:23:41;103695.41;;;8.23;82.67
46045;BME280;31781;54.094;13.428;2023-02-12T10:25:48;103687.13;;;8.24;81.86
46045;BME280;31781;54.094;13.428;2023-02-12T10:27:56;103686.16;;;8.25;81.96
46045;BME280;31781;54.094;13.428;2023-02-12T10:30:03;103694.94;;;8.29;81.96
46045;BME280;31781;54.094;13.428;2023-02-12T10:32:23;103686.44;;;8.34;81.53
46045;BME280;31781;54.094;13.428;2023-02-12T10:34:32;103692.59;;;8.36;81.97
46045;BME280;31781;54.094;13.428;2023-02-12T10:36:38;103685.31;;;8.36;81.54
46045;BME280;31781;54.094;13.428;2023-02-12T10:38:46;103681.38;;;8.40;81.56
46045;BME280;31781;54.094;13.428;2023-02-12T10:40:50;103676.94;;;8.39;81.00
46045;BME280;31781;54.094;13.428;2023-02-12T10:42:53;103674.00;;;8.42;81.35
46045;BME280;31781;54.094;13.428;2023-02-12T10:44:55;103672.00;;;8.44;81.71
46045;BME280;31781;54.094;13.428;2023-02-12T10:46:57;103676.31;;;8.47;82.05
46045;BME280;31781;54.094;13.428;2023-02-12T10:49:01;103676.22;;;8.48;82.29
46045;BME280;31781;54.094;13.428;2023-02-12T10:51:14;103675.94;;;8.51;82.39
46045;BME280;31781;54.094;13.428;2023-02-12T10:53:22;103684.84;;;8.53;81.85
46045;BME280;31781;54.094;13.428;2023-02-12T10:55:26;103682.00;;;8.55;81.83